Terminal Aerodrome Forecast
Issued by NWS Rapid City, SD

Home | Current Version | Previous Version | Text Only | Print | Product List | Glossary Off
Versions: 1 2 3 4 5 6 7 8 9 10 11 12 13 14 15 16 17 18 19

570
FTUS43 KUNR 210304 AAB
TAFRAP
TAF AMD
KRAP 210304Z 2103/2124 15011KT P6SM SCT150 BKN250
     FM210500 36011KT P6SM TSRA OVC100CB
     FM210800 19006KT P6SM OVC150
     FM211300 27007KT P6SM SCT200
     FM211400 31008KT P6SM SCT200
     FM211600 34015KT P6SM SCT250=

USA.gov is the U.S. government's official web portal to all federal, state and local government web resources and services.